AirNav   Air Wisconsin Up To $57,000 Bonus
 
 477 users online  

1LA3 Goose Island Airport
Hayes, Louisiana, USA

GOING TO HAYES?


FAA INFORMATION EFFECTIVE 27 FEBRUARY 2020

Location

FAA Identifier: 1LA3
Lat/Long: 30-01-50.7540N 092-50-00.5330W
30-01.845900N 092-50.008883W
30.0307650,-92.8334814
(estimated)
Elevation: 4 ft. / 1.2 m (surveyed)
Variation: 04E (1985)
From city: 7 miles SE of HAYES, LA
Time zone: UTC -6 (UTC -5 during Daylight Saving Time)
Zip code: 70549

Airport Operations

Airport use: Private use. Permission required prior to landing
Activation date: 04/1964
Control tower: no
ARTCC: HOUSTON CENTER
FSS: DE RIDDER FLIGHT SERVICE STATION
Attendance: UNATNDD
Wind indicator: yes
Segmented circle: no

Airport Communications

WX AWOS-3PT at 3R7 (15 nm NE): 121.150 (337-824-0517)
WX AWOS-3 at CWF (19 nm NW): 120.0 (337-436-3452)

Nearby radio navigation aids

VOR radial/distance  VOR name  Freq  Var
LCHr108/15.6LAKE CHARLES VORTAC113.4007E
LLAr309/32.5WHITE LAKE VOR/DME110.4004E

 
NDB name  Hdg/Dist  Freq  Var  ID
SULPHUR104/32.127804EAUR .- ..- .-.
ABBEVILLE265/36.923002EBNZ -... -. --..
DURALDE210/37.526302EECY . -.-. -.--

Airport Services

Airframe service: NONE
Powerplant service: NONE

Runway Information

Runway N/S

Dimensions: 4000 x 150 ft. / 1219 x 46 m
Surface: turf
RUNWAY N  RUNWAY S
Traffic pattern: leftleft

Airport Ownership and Management from official FAA records

Ownership: Privately-owned
Owner: ALBERT B. FAY
515 HOUSTON AVE,
HOUSTON, TX 77007
Phone (713) 227-5251
Manager: ALBERT B. FAY
515 HOUSTON AVE,
HOUSTON, TX 77007
Phone 713-227-5251
ADDITIONAL CONTACT: JOHN C. THIELEN 500 KIRBY ST LAKE CHARLES, LA 70602 337-721-5724

Additional Remarks

CATTLE GRAZE ON RWY.
FOR CD CTC LAKE CHARLES APCH AT 337-480-3103, WHEN APCH CLSD CTC HOUSTON ARTCC AT 281-230-5622.

Instrument Procedures

There are no published instrument procedures at 1LA3.

Some nearby airports with instrument procedures:

6R1 - Welsh Airport (13 nm N)
3R7 - Jennings Airport (15 nm NE)
KCWF - Chennault International Airport (19 nm NW)
KLCH - Lake Charles Regional Airport (21 nm W)
KUXL - Southland Field Airport (29 nm W)
 
Loc | Ops | Rwys | IFR | FBO | Links
Com | Nav | Svcs | Stats | Notes
Area around 1LA3 (Goose Island Airport)
 
Road maps at: MapQuest Bing Google
 
Aerial photo
No photo
 
Sectional chart

 
Airport distance calculator
Flying to Goose Island Airport? Find the distance to fly.

From to 1LA3

Sunrise and sunset
Times for 29-Feb-2020
 Local
(UTC-6)
 Zulu
(UTC)
Morning civil twilight06:1412:14
Sunrise06:3812:38
Sunset18:0900:09
Evening civil twilight18:3300:33

Current date and time
Zulu (UTC)  29-Feb-2020 11:03:10
Local (UTC-6)  29-Feb-2020 05:03:10
 
METAR
K3R7 
15nm NE 
291055Z AUTO 00000KT 10SM CLR 06/05 A3034 RMK AO2 T00550046
KCWF 
20nm NW 
291055Z AUTO 00000KT 10SM CLR 06/05 A3033 RMK AO2 T00570048
KLCH 
21nm W 
291053Z AUTO 00000KT 1/4SM FG VV001 07/06 A3033 RMK AO2 SLP279 T00670056 $
KUXL 
29nm W 
291055Z AUTO 00000KT 1/4SM FG OVC002 06/06 A3034 RMK AO2 T00640064
TAF
KLCH 
21nm W 
290852Z 2909/0106 VRB03KT 4SM BR FEW250 TEMPO 2909/2913 1/2SM FG VV002 FM291400 14004KT P6SM FEW005 FM291700 18008KT P6SM FEW250 FM010000 18005KT P6SM SKC
NOTAMs
Click for the latest NOTAMs
NOTAMs are issued by the DoD/FAA and will open in a separate window not controlled by AirNav.

 

 
 

Would you like to see your business listed on this page?

 If your business provides an interesting product or service to pilots, flight crews, aircraft, or users of the Goose Island Airport, you should consider listing it here.  To start the listing process, click on the button below
 
Add a business
 

Other Pages about Goose Island Airport

Update a link
 
Copyright © AirNav, LLC. All rights reserved. Privacy Policy  Contact